Time,TemperatureF,DewpointF,PressureIn,WindDirection,WindDirectionDegrees,WindSpeedMPH,WindSpeedGustMPH,Humidity,HourlyPrecipIn,Conditions,Clouds,dailyrainin,SoftwareType,DateUTC
2013-06-27 00:00:00,64.9,63.1,29.92,WNW,302,0.0,0.0,94,0.00,,,0.07,Wunderground v.1.15,2013-06-27 04:00:00,
2013-06-27 00:05:00,64.8,63.0,29.92,WNW,302,0.0,0.0,94,0.00,,,0.00,Wunderground v.1.15,2013-06-27 04:05:00,
2013-06-27 00:10:00,64.7,62.9,29.92,WNW,302,0.0,0.0,94,0.00,,,0.00,Wunderground v.1.15,2013-06-27 04:10:00,
2013-06-27 00:15:00,64.7,62.9,29.92,WNW,302,0.0,0.0,94,0.00,,,0.00,Wunderground v.1.15,2013-06-27 04:15:00,
2013-06-27 00:20:00,64.7,62.9,29.91,WNW,302,0.0,0.0,94,0.00,,,0.00,Wunderground v.1.15,2013-06-27 04:20:00,
2013-06-27 00:25:00,64.6,62.8,29.91,WNW,302,0.0,0.0,94,0.00,,,0.00,Wunderground v.1.15,2013-06-27 04:25:00,
2013-06-27 00:30:00,64.5,62.7,29.92,WNW,302,0.0,0.0,94,0.00,,,0.00,Wunderground v.1.15,2013-06-27 04:30:00,
2013-06-27 00:40:00,64.5,62.7,29.91,WNW,302,0.0,0.0,94,0.00,,,0.00,Wunderground v.1.15,2013-06-27 04:40:00,
2013-06-27 00:45:00,64.5,62.7,29.91,WNW,302,0.0,0.0,94,0.00,,,0.00,Wunderground v.1.15,2013-06-27 04:45:00,
2013-06-27 00:55:00,64.5,62.7,29.91,WNW,302,0.0,0.0,94,0.00,,,0.00,Wunderground v.1.15,2013-06-27 04:55:00,
2013-06-27 01:00:00,64.5,62.7,29.90,WNW,302,0.0,0.0,94,0.00,,,0.00,Wunderground v.1.15,2013-06-27 05:00:00,
2013-06-27 01:05:00,64.4,62.6,29.90,WNW,301,0.0,0.0,94,0.00,,,0.00,Wunderground v.1.15,2013-06-27 05:05:00,
2013-06-27 01:10:00,64.4,62.6,29.90,WNW,302,0.0,0.0,94,0.00,,,0.00,Wunderground v.1.15,2013-06-27 05:10:00,
2013-06-27 01:15:00,64.4,62.6,29.90,WNW,302,0.0,0.0,94,0.00,,,0.00,Wunderground v.1.15,2013-06-27 05:15:00,
2013-06-27 01:25:00,64.6,63.1,29.90,WNW,302,0.0,0.0,95,0.00,,,0.00,Wunderground v.1.15,2013-06-27 05:25:00,
2013-06-27 01:30:00,64.8,63.3,29.91,WNW,302,0.0,1.0,95,0.00,,,0.01,Wunderground v.1.15,2013-06-27 05:30:00,
2013-06-27 01:40:00,64.9,63.4,29.91,WNW,302,0.0,0.0,95,0.22,,,0.03,Wunderground v.1.15,2013-06-27 05:40:00,
2013-06-27 01:45:00,65.1,63.6,29.91,WNW,302,0.0,0.0,95,0.14,,,0.04,Wunderground v.1.15,2013-06-27 05:45:00,
2013-06-27 01:55:00,65.3,63.8,29.91,WNW,302,0.0,0.0,95,0.10,,,0.06,Wunderground v.1.15,2013-06-27 05:55:00,
2013-06-27 02:00:00,65.4,63.9,29.90,WNW,302,0.0,0.0,95,0.10,,,0.07,Wunderground v.1.15,2013-06-27 06:00:00,
2013-06-27 02:10:00,65.5,64.0,29.90,WNW,302,0.0,0.0,95,0.08,,,0.08,Wunderground v.1.15,2013-06-27 06:10:00,
2013-06-27 02:20:00,65.6,64.1,29.89,WNW,302,0.0,0.0,95,0.08,,,0.10,Wunderground v.1.15,2013-06-27 06:20:00,
2013-06-27 02:25:00,65.7,64.2,29.89,WNW,302,0.0,0.0,95,0.08,,,0.10,Wunderground v.1.15,2013-06-27 06:25:00,
2013-06-27 02:30:00,65.7,64.2,29.87,WNW,302,0.0,0.0,95,0.08,,,0.11,Wunderground v.1.15,2013-06-27 06:30:00,
2013-06-27 02:40:00,65.8,64.3,29.85,WNW,302,0.0,0.0,95,0.06,,,0.12,Wunderground v.1.15,2013-06-27 06:40:00,
2013-06-27 02:45:00,65.9,64.4,29.86,WNW,302,0.0,0.0,95,0.07,,,0.13,Wunderground v.1.15,2013-06-27 06:45:00,
2013-06-27 02:55:00,65.9,64.4,29.85,WNW,302,0.0,0.0,95,0.06,,,0.13,Wunderground v.1.15,2013-06-27 06:55:00,
2013-06-27 03:00:00,65.9,64.4,29.84,WNW,302,0.0,0.0,95,0.05,,,0.14,Wunderground v.1.15,2013-06-27 07:00:00,
2013-06-27 03:10:00,65.9,64.4,29.83,WNW,302,0.0,0.0,95,0.05,,,0.15,Wunderground v.1.15,2013-06-27 07:10:00,
2013-06-27 03:15:00,65.8,64.3,29.83,WNW,302,0.0,0.0,95,0.05,,,0.15,Wunderground v.1.15,2013-06-27 07:15:00,
2013-06-27 03:25:00,65.8,64.3,29.83,WNW,302,0.0,0.0,95,0.04,,,0.16,Wunderground v.1.15,2013-06-27 07:25:00,
2013-06-27 03:35:00,65.9,64.4,29.83,WNW,302,0.0,0.0,95,0.04,,,0.16,Wunderground v.1.15,2013-06-27 07:35:00,
2013-06-27 03:40:00,65.9,64.4,29.83,WNW,302,0.0,0.0,95,0.04,,,0.17,Wunderground v.1.15,2013-06-27 07:40:00,
2013-06-27 03:45:00,65.9,64.4,29.82,WNW,302,0.0,0.0,95,0.04,,,0.17,Wunderground v.1.15,2013-06-27 07:45:00,
2013-06-27 03:55:00,65.7,64.2,29.81,WNW,302,0.0,0.0,95,0.04,,,0.18,Wunderground v.1.15,2013-06-27 07:55:00,
2013-06-27 04:00:00,65.7,64.2,29.81,WNW,302,0.0,0.0,95,0.04,,,0.18,Wunderground v.1.15,2013-06-27 08:00:00,
2013-06-27 04:10:00,65.6,64.1,29.80,WNW,302,0.0,0.0,95,0.04,,,0.19,Wunderground v.1.15,2013-06-27 08:10:00,
2013-06-27 04:15:00,65.5,64.0,29.80,WNW,302,0.0,1.0,95,0.04,,,0.19,Wunderground v.1.15,2013-06-27 08:15:00,
2013-06-27 04:20:00,65.4,63.9,29.80,WNW,302,0.0,0.0,95,0.04,,,0.19,Wunderground v.1.15,2013-06-27 08:20:00,
2013-06-27 04:25:00,65.5,64.0,29.80,WNW,302,0.0,0.0,95,0.04,,,0.19,Wunderground v.1.15,2013-06-27 08:25:00,
2013-06-27 04:30:00,65.5,64.0,29.81,WNW,302,0.0,0.0,95,0.00,,,0.20,Wunderground v.1.15,2013-06-27 08:30:00,
2013-06-27 04:40:00,65.4,63.9,29.82,WNW,302,0.0,0.0,95,0.00,,,0.20,Wunderground v.1.15,2013-06-27 08:40:00,
2013-06-27 04:45:00,65.4,63.9,29.82,WNW,302,0.0,0.0,95,0.00,,,0.20,Wunderground v.1.15,2013-06-27 08:45:00,
2013-06-27 04:55:00,65.6,64.1,29.82,WNW,302,0.0,0.0,95,0.00,,,0.21,Wunderground v.1.15,2013-06-27 08:55:00,
2013-06-27 05:00:00,65.5,64.0,29.82,WNW,302,0.0,0.0,95,0.00,,,0.21,Wunderground v.1.15,2013-06-27 09:00:00,
2013-06-27 05:05:00,65.5,64.0,29.82,WNW,302,0.0,0.0,95,0.00,,,0.21,Wunderground v.1.15,2013-06-27 09:05:00,
2013-06-27 05:10:00,65.5,64.0,29.83,WNW,302,0.0,0.0,95,0.00,,,0.21,Wunderground v.1.15,2013-06-27 09:10:00,
2013-06-27 05:15:00,65.5,64.0,29.82,WNW,302,0.0,0.0,95,0.00,,,0.21,Wunderground v.1.15,2013-06-27 09:15:00,
2013-06-27 05:25:00,65.4,63.9,29.83,WNW,288,0.0,3.0,95,0.00,,,0.22,Wunderground v.1.15,2013-06-27 09:25:00,
2013-06-27 05:30:00,65.4,63.9,29.83,WNW,284,0.0,0.0,95,0.00,,,0.22,Wunderground v.1.15,2013-06-27 09:30:00,
2013-06-27 05:40:00,65.5,64.0,29.84,NE,38,1.0,1.0,95,0.00,,,0.22,Wunderground v.1.15,2013-06-27 09:40:00,
2013-06-27 05:45:00,65.6,64.1,29.83,NW,306,1.0,1.0,95,0.00,,,0.22,Wunderground v.1.15,2013-06-27 09:45:00,
2013-06-27 05:50:00,65.7,64.2,29.84,West,274,1.0,2.0,95,0.00,,,0.22,Wunderground v.1.15,2013-06-27 09:50:00,
2013-06-27 05:55:00,65.7,64.2,29.84,WNW,288,1.0,2.0,95,0.00,,,0.22,Wunderground v.1.15,2013-06-27 09:55:00,
2013-06-27 06:00:00,65.8,64.3,29.84,NNE,12,1.0,1.0,95,0.00,,,0.23,Wunderground v.1.15,2013-06-27 10:00:00,
2013-06-27 06:10:00,65.9,64.4,29.84,NE,39,1.0,1.0,95,0.00,,,0.23,Wunderground v.1.15,2013-06-27 10:10:00,
2013-06-27 06:15:00,65.9,64.4,29.85,NNW,343,0.0,1.0,95,0.00,,,0.23,Wunderground v.1.15,2013-06-27 10:15:00,
2013-06-27 06:20:00,65.9,64.4,29.85,NNW,346,0.0,0.0,95,0.00,,,0.23,Wunderground v.1.15,2013-06-27 10:20:00,
2013-06-27 06:25:00,65.9,64.4,29.86,WNW,303,1.0,1.0,95,0.00,,,0.23,Wunderground v.1.15,2013-06-27 10:25:00,
2013-06-27 06:30:00,65.9,64.4,29.86,North,355,1.0,2.0,95,0.00,,,0.23,Wunderground v.1.15,2013-06-27 10:30:00,
2013-06-27 06:40:00,65.8,64.3,29.86,North,355,0.0,0.0,95,0.00,,,0.23,Wunderground v.1.15,2013-06-27 10:40:00,
2013-06-27 06:45:00,65.8,64.3,29.86,NNW,339,0.0,0.0,95,0.00,,,0.23,Wunderground v.1.15,2013-06-27 10:45:00,
2013-06-27 06:55:00,65.8,64.3,29.86,NNW,346,1.0,1.0,95,0.00,,,0.24,Wunderground v.1.15,2013-06-27 10:55:00,
2013-06-27 07:00:00,65.8,64.3,29.85,NNW,329,0.0,0.0,95,0.00,,,0.24,Wunderground v.1.15,2013-06-27 11:00:00,
2013-06-27 07:10:00,65.7,64.2,29.85,NNW,329,0.0,0.0,95,0.00,,,0.24,Wunderground v.1.15,2013-06-27 11:10:00,
2013-06-27 07:15:00,65.7,64.2,29.85,NNW,329,0.0,0.0,95,0.00,,,0.24,Wunderground v.1.15,2013-06-27 11:15:00,
2013-06-27 07:25:00,65.6,64.1,29.85,NNW,328,0.0,0.0,95,0.00,,,0.24,Wunderground v.1.15,2013-06-27 11:25:00,
2013-06-27 07:30:00,65.6,64.1,29.85,NNW,329,0.0,0.0,95,0.00,,,0.24,Wunderground v.1.15,2013-06-27 11:30:00,
2013-06-27 07:40:00,65.6,64.1,29.85,NNW,329,0.0,1.0,95,0.00,,,0.24,Wunderground v.1.15,2013-06-27 11:40:00,
2013-06-27 07:50:00,65.4,63.9,29.86,WNW,296,1.0,1.0,95,0.00,,,0.25,Wunderground v.1.15,2013-06-27 11:50:00,
2013-06-27 07:55:00,65.5,64.0,29.86,WNW,296,0.0,1.0,95,0.00,,,0.25,Wunderground v.1.15,2013-06-27 11:55:00,
2013-06-27 08:00:00,65.4,63.9,29.86,NW,304,0.0,0.0,95,0.00,,,0.25,Wunderground v.1.15,2013-06-27 12:00:00,
2013-06-27 08:10:00,65.1,63.6,29.86,NNW,342,0.0,0.0,95,0.00,,,0.25,Wunderground v.1.15,2013-06-27 12:10:00,
2013-06-27 08:15:00,65.1,63.6,29.86,NNW,342,0.0,0.0,95,0.00,,,0.25,Wunderground v.1.15,2013-06-27 12:15:00,
2013-06-27 08:25:00,64.9,63.4,29.86,NNW,342,0.0,0.0,95,0.00,,,0.25,Wunderground v.1.15,2013-06-27 12:25:00,
2013-06-27 08:30:00,64.9,63.4,29.86,NNW,342,0.0,0.0,95,0.00,,,0.25,Wunderground v.1.15,2013-06-27 12:30:00,
2013-06-27 08:40:00,64.8,63.3,29.86,NNW,342,0.0,0.0,95,0.00,,,0.25,Wunderground v.1.15,2013-06-27 12:40:00,
2013-06-27 08:45:00,64.8,63.3,29.86,NNW,342,0.0,0.0,95,0.00,,,0.25,Wunderground v.1.15,2013-06-27 12:45:00,
2013-06-27 08:50:00,64.9,63.4,29.86,NNW,342,0.0,0.0,95,0.00,,,0.26,Wunderground v.1.15,2013-06-27 12:50:00,
2013-06-27 08:55:00,65.0,63.5,29.86,NNW,342,0.0,0.0,95,0.00,,,0.26,Wunderground v.1.15,2013-06-27 12:55:00,
2013-06-27 09:00:00,65.1,63.6,29.87,NNW,340,0.0,0.0,95,0.00,,,0.26,Wunderground v.1.15,2013-06-27 13:00:00,
2013-06-27 09:10:00,65.1,63.6,29.86,NNW,340,0.0,0.0,95,0.00,,,0.26,Wunderground v.1.15,2013-06-27 13:10:00,
2013-06-27 09:15:00,65.3,63.8,29.86,NW,326,0.0,0.0,95,0.00,,,0.26,Wunderground v.1.15,2013-06-27 13:15:00,
2013-06-27 09:25:00,66.1,64.6,29.86,NW,326,0.0,1.0,95,0.00,,,0.26,Wunderground v.1.15,2013-06-27 13:25:00,
2013-06-27 09:30:00,66.3,64.8,29.86,NW,314,0.0,0.0,95,0.00,,,0.26,Wunderground v.1.15,2013-06-27 13:30:00,
2013-06-27 09:35:00,66.6,65.1,29.86,NW,314,0.0,0.0,95,0.00,,,0.26,Wunderground v.1.15,2013-06-27 13:35:00,
2013-06-27 09:40:00,66.7,65.2,29.86,NW,314,0.0,0.0,95,0.00,,,0.26,Wunderground v.1.15,2013-06-27 13:40:00,
2013-06-27 09:45:00,66.6,65.1,29.85,WNW,298,0.0,0.0,95,0.00,,,0.26,Wunderground v.1.15,2013-06-27 13:45:00,
2013-06-27 09:55:00,66.5,65.0,29.86,WNW,298,0.0,0.0,95,0.00,,,0.26,Wunderground v.1.15,2013-06-27 13:55:00,
2013-06-27 10:00:00,66.5,65.0,29.85,WNW,298,0.0,0.0,95,0.00,,,0.26,Wunderground v.1.15,2013-06-27 14:00:00,
2013-06-27 10:05:00,66.5,65.0,29.85,WNW,298,0.0,0.0,95,0.00,,,0.26,Wunderground v.1.15,2013-06-27 14:05:00,
2013-06-27 10:10:00,66.4,64.9,29.85,WNW,298,0.0,0.0,95,0.00,,,0.26,Wunderground v.1.15,2013-06-27 14:10:00,
2013-06-27 10:15:00,66.5,65.0,29.85,WNW,298,0.0,0.0,95,0.00,,,0.26,Wunderground v.1.15,2013-06-27 14:15:00,
2013-06-27 10:25:00,66.5,65.0,29.85,WNW,298,0.0,0.0,95,0.00,,,0.27,Wunderground v.1.15,2013-06-27 14:25:00,
2013-06-27 10:30:00,66.5,65.0,29.85,WNW,298,0.0,0.0,95,0.00,,,0.27,Wunderground v.1.15,2013-06-27 14:30:00,
2013-06-27 10:40:00,66.1,64.3,29.85,WNW,298,0.0,0.0,94,0.00,,,0.27,Wunderground v.1.15,2013-06-27 14:40:00,
2013-06-27 10:50:00,66.0,64.2,29.84,WNW,298,0.0,0.0,94,0.00,,,0.27,Wunderground v.1.15,2013-06-27 14:50:00,
2013-06-27 10:55:00,65.9,64.1,29.84,WNW,298,0.0,0.0,94,0.00,,,0.27,Wunderground v.1.15,2013-06-27 14:55:00,
2013-06-27 11:00:00,65.9,64.1,29.85,WNW,298,0.0,0.0,94,0.00,,,0.27,Wunderground v.1.15,2013-06-27 15:00:00,
2013-06-27 11:10:00,65.9,64.1,29.85,WNW,298,0.0,0.0,94,0.00,,,0.27,Wunderground v.1.15,2013-06-27 15:10:00,
2013-06-27 11:15:00,66.0,64.2,29.85,WNW,298,0.0,0.0,94,0.00,,,0.27,Wunderground v.1.15,2013-06-27 15:15:00,
2013-06-27 11:25:00,65.9,64.1,29.85,WNW,298,0.0,0.0,94,0.00,,,0.27,Wunderground v.1.15,2013-06-27 15:25:00,
2013-06-27 11:30:00,65.9,64.1,29.85,WNW,298,0.0,0.0,94,0.00,,,0.27,Wunderground v.1.15,2013-06-27 15:30:00,
2013-06-27 11:35:00,65.9,64.1,29.85,WNW,298,0.0,0.0,94,0.00,,,0.27,Wunderground v.1.15,2013-06-27 15:35:00,
2013-06-27 11:40:00,65.9,64.4,29.85,WNW,298,0.0,0.0,95,0.00,,,0.27,Wunderground v.1.15,2013-06-27 15:40:00,
2013-06-27 11:50:00,66.0,64.5,29.85,WNW,298,0.0,0.0,95,0.00,,,0.27,Wunderground v.1.15,2013-06-27 15:50:00,
2013-06-27 11:55:00,65.9,64.4,29.85,WNW,298,0.0,0.0,95,0.00,,,0.27,Wunderground v.1.15,2013-06-27 15:55:00,
2013-06-27 12:00:00,65.9,64.4,29.85,WNW,298,0.0,0.0,95,0.00,,,0.28,Wunderground v.1.15,2013-06-27 16:00:00,
2013-06-27 12:10:00,65.8,64.3,29.85,WNW,298,0.0,0.0,95,0.00,,,0.28,Wunderground v.1.15,2013-06-27 16:10:00,
2013-06-27 12:15:00,65.8,64.3,29.85,WNW,298,0.0,0.0,95,0.00,,,0.28,Wunderground v.1.15,2013-06-27 16:15:00,
2013-06-27 12:20:00,65.8,64.3,29.85,WNW,298,0.0,0.0,95,0.00,,,0.28,Wunderground v.1.15,2013-06-27 16:20:00,
2013-06-27 12:25:00,65.7,64.2,29.85,WNW,298,0.0,0.0,95,0.00,,,0.28,Wunderground v.1.15,2013-06-27 16:25:00,
2013-06-27 12:30:00,65.6,64.1,29.85,WNW,298,0.0,0.0,95,0.00,,,0.28,Wunderground v.1.15,2013-06-27 16:30:00,
2013-06-27 12:40:00,65.7,64.2,29.85,WNW,298,0.0,0.0,95,0.00,,,0.28,Wunderground v.1.15,2013-06-27 16:40:00,
2013-06-27 12:45:00,65.8,64.3,29.85,WNW,298,0.0,0.0,95,0.00,,,0.28,Wunderground v.1.15,2013-06-27 16:45:00,
2013-06-27 12:55:00,65.8,64.3,29.85,WNW,298,0.0,0.0,95,0.00,,,0.28,Wunderground v.1.15,2013-06-27 16:55:00,
2013-06-27 13:00:00,65.9,64.4,29.85,WNW,298,0.0,0.0,95,0.00,,,0.28,Wunderground v.1.15,2013-06-27 17:00:00,
2013-06-27 13:05:00,66.0,64.5,29.85,WNW,298,0.0,0.0,95,0.00,,,0.28,Wunderground v.1.15,2013-06-27 17:05:00,
2013-06-27 13:10:00,66.1,64.6,29.85,WNW,298,0.0,0.0,95,0.00,,,0.28,Wunderground v.1.15,2013-06-27 17:10:00,
2013-06-27 13:15:00,66.2,64.7,29.85,WNW,298,0.0,0.0,95,0.00,,,0.28,Wunderground v.1.15,2013-06-27 17:15:00,
2013-06-27 13:25:00,66.3,64.8,29.85,WNW,298,0.0,0.0,95,0.00,,,0.28,Wunderground v.1.15,2013-06-27 17:25:00,
2013-06-27 13:30:00,66.5,65.0,29.85,WNW,298,0.0,0.0,95,0.00,,,0.28,Wunderground v.1.15,2013-06-27 17:30:00,
2013-06-27 13:40:00,66.7,65.2,29.85,WNW,298,0.0,0.0,95,0.00,,,0.28,Wunderground v.1.15,2013-06-27 17:40:00,
2013-06-27 13:45:00,66.7,65.2,29.84,WNW,298,0.0,0.0,95,0.00,,,0.28,Wunderground v.1.15,2013-06-27 17:45:00,
2013-06-27 13:50:00,66.8,65.3,29.84,WNW,298,0.0,0.0,95,0.00,,,0.28,Wunderground v.1.15,2013-06-27 17:50:00,
2013-06-27 13:55:00,66.9,65.4,29.84,WNW,298,0.0,0.0,95,0.00,,,0.28,Wunderground v.1.15,2013-06-27 17:55:00,
2013-06-27 14:00:00,67.1,65.6,29.84,WNW,298,0.0,0.0,95,0.00,,,0.28,Wunderground v.1.15,2013-06-27 18:00:00,
2013-06-27 14:10:00,67.2,65.7,29.84,WNW,298,0.0,0.0,95,0.00,,,0.28,Wunderground v.1.15,2013-06-27 18:10:00,
2013-06-27 14:15:00,67.5,66.0,29.84,WNW,298,0.0,0.0,95,0.00,,,0.28,Wunderground v.1.15,2013-06-27 18:15:00,
2013-06-27 14:25:00,67.8,66.3,29.84,WNW,298,0.0,1.0,95,0.00,,,0.28,Wunderground v.1.15,2013-06-27 18:25:00,
2013-06-27 14:30:00,68.0,66.5,29.84,WNW,298,0.0,0.0,95,0.00,,,0.28,Wunderground v.1.15,2013-06-27 18:30:00,
2013-06-27 14:40:00,68.6,67.1,29.84,WNW,297,0.0,0.0,95,0.00,,,0.28,Wunderground v.1.15,2013-06-27 18:40:00,
2013-06-27 14:45:00,68.6,67.1,29.84,ENE,57,1.0,1.0,95,0.00,,,0.28,Wunderground v.1.15,2013-06-27 18:45:00,
2013-06-27 14:50:00,68.7,67.2,29.84,NNW,337,1.0,1.0,95,0.00,,,0.28,Wunderground v.1.15,2013-06-27 18:50:00,
2013-06-27 14:55:00,68.9,67.4,29.84,NNW,336,0.0,1.0,95,0.00,,,0.28,Wunderground v.1.15,2013-06-27 18:55:00,
2013-06-27 15:05:00,69.2,67.7,29.83,North,351,0.0,0.0,95,0.00,,,0.29,Wunderground v.1.15,2013-06-27 19:05:00,
2013-06-27 15:10:00,69.5,68.0,29.83,North,351,0.0,0.0,95,0.00,,,0.29,Wunderground v.1.15,2013-06-27 19:10:00,
2013-06-27 15:15:00,69.5,68.0,29.83,NW,304,0.0,0.0,95,0.00,,,0.29,Wunderground v.1.15,2013-06-27 19:15:00,
2013-06-27 15:25:00,70.0,68.2,29.83,NW,304,0.0,0.0,94,0.00,,,0.29,Wunderground v.1.15,2013-06-27 19:25:00,
2013-06-27 15:30:00,70.0,68.2,29.83,NW,304,0.0,2.0,94,0.00,,,0.29,Wunderground v.1.15,2013-06-27 19:30:00,
2013-06-27 15:35:00,70.1,68.3,29.83,NNW,329,0.0,2.0,94,0.00,,,0.29,Wunderground v.1.15,2013-06-27 19:35:00,
2013-06-27 15:40:00,70.3,68.5,29.83,NW,321,0.0,3.0,94,0.00,,,0.29,Wunderground v.1.15,2013-06-27 19:40:00,
2013-06-27 15:45:00,70.4,68.3,29.83,WNW,303,1.0,3.0,93,0.00,,,0.29,Wunderground v.1.15,2013-06-27 19:45:00,
2013-06-27 15:55:00,70.7,68.6,29.82,NNE,22,1.0,1.0,93,0.00,,,0.29,Wunderground v.1.15,2013-06-27 19:55:00,
2013-06-27 16:00:00,70.8,68.4,29.82,WNW,292,2.0,2.0,92,0.00,,,0.29,Wunderground v.1.15,2013-06-27 20:00:00,
2013-06-27 16:10:00,71.3,69.2,29.82,WNW,292,0.0,0.0,93,0.00,,,0.29,Wunderground v.1.15,2013-06-27 20:10:00,
2013-06-27 16:20:00,71.5,69.1,29.82,WNW,292,0.0,0.0,92,0.00,,,0.29,Wunderground v.1.15,2013-06-27 20:20:00,
2013-06-27 16:25:00,71.7,69.3,29.82,NW,317,1.0,1.0,92,0.00,,,0.29,Wunderground v.1.15,2013-06-27 20:25:00,
2013-06-27 16:30:00,72.1,69.6,29.81,NNE,18,1.0,1.0,92,0.00,,,0.29,Wunderground v.1.15,2013-06-27 20:30:00,
2013-06-27 16:40:00,73.1,70.6,29.81,NNE,13,0.0,0.0,92,0.00,,,0.29,Wunderground v.1.15,2013-06-27 20:40:00,
2013-06-27 16:50:00,73.8,71.0,29.80,North,11,0.0,0.0,91,0.00,,,0.29,Wunderground v.1.15,2013-06-27 20:50:00,
2013-06-27 16:55:00,74.0,70.9,29.80,North,11,0.0,0.0,90,0.00,,,0.29,Wunderground v.1.15,2013-06-27 20:55:00,
2013-06-27 17:00:00,74.0,70.6,29.80,NNW,336,1.0,1.0,89,0.00,,,0.29,Wunderground v.1.15,2013-06-27 21:00:00,
2013-06-27 17:10:00,74.0,70.9,29.79,NNW,336,0.0,0.0,90,0.00,,,0.29,Wunderground v.1.15,2013-06-27 21:10:00,
2013-06-27 17:15:00,73.9,70.8,29.79,NW,320,0.0,0.0,90,0.00,,,0.29,Wunderground v.1.15,2013-06-27 21:15:00,
2013-06-27 17:25:00,73.7,70.6,29.78,NW,320,0.0,0.0,90,0.00,,,0.29,Wunderground v.1.15,2013-06-27 21:25:00,
2013-06-27 17:30:00,73.4,70.6,29.78,NW,320,0.0,0.0,91,0.00,,,0.29,Wunderground v.1.15,2013-06-27 21:30:00,
2013-06-27 17:40:00,73.7,71.2,29.78,NW,320,0.0,0.0,92,0.00,,,0.29,Wunderground v.1.15,2013-06-27 21:40:00,
2013-06-27 17:45:00,73.7,71.2,29.78,NW,320,0.0,0.0,92,0.00,,,0.29,Wunderground v.1.15,2013-06-27 21:45:00,
2013-06-27 17:50:00,73.9,71.4,29.78,NW,320,0.0,0.0,92,0.00,,,0.29,Wunderground v.1.15,2013-06-27 21:50:00,
2013-06-27 17:55:00,73.9,71.1,29.77,NW,320,0.0,0.0,91,0.00,,,0.29,Wunderground v.1.15,2013-06-27 21:55:00,
2013-06-27 18:05:00,74.1,71.3,29.77,NW,320,0.0,0.0,91,0.00,,,0.29,Wunderground v.1.15,2013-06-27 22:05:00,
2013-06-27 18:10:00,74.1,71.3,29.77,NW,320,0.0,0.0,91,0.00,,,0.29,Wunderground v.1.15,2013-06-27 22:10:00,
2013-06-27 18:15:00,73.9,71.1,29.77,NW,320,0.0,0.0,91,0.00,,,0.29,Wunderground v.1.15,2013-06-27 22:15:00,
2013-06-27 18:20:00,73.7,70.9,29.77,NW,320,0.0,0.0,91,0.00,,,0.29,Wunderground v.1.15,2013-06-27 22:20:00,
2013-06-27 18:25:00,73.6,71.1,29.77,NW,320,0.0,0.0,92,0.00,,,0.30,Wunderground v.1.15,2013-06-27 22:25:00,
2013-06-27 18:35:00,73.5,71.0,29.77,NW,320,0.0,0.0,92,0.00,,,0.30,Wunderground v.1.15,2013-06-27 22:35:00,
2013-06-27 18:40:00,73.5,71.0,29.76,NW,320,0.0,0.0,92,0.00,,,0.30,Wunderground v.1.15,2013-06-27 22:40:00,
2013-06-27 18:45:00,73.3,70.8,29.76,NW,320,0.0,0.0,92,0.00,,,0.30,Wunderground v.1.15,2013-06-27 22:45:00,
2013-06-27 18:50:00,73.2,70.7,29.76,NW,320,0.0,0.0,92,0.00,,,0.30,Wunderground v.1.15,2013-06-27 22:50:00,
2013-06-27 18:55:00,73.1,70.6,29.76,NW,320,0.0,0.0,92,0.00,,,0.30,Wunderground v.1.15,2013-06-27 22:55:00,
2013-06-27 19:00:00,73.0,70.5,29.76,NW,320,0.0,0.0,92,0.00,,,0.30,Wunderground v.1.15,2013-06-27 23:00:00,
2013-06-27 19:10:00,72.9,70.8,29.76,NW,320,0.0,0.0,93,0.00,,,0.30,Wunderground v.1.15,2013-06-27 23:10:00,
2013-06-27 19:15:00,73.0,70.9,29.76,NW,320,0.0,0.0,93,0.00,,,0.30,Wunderground v.1.15,2013-06-27 23:15:00,
2013-06-27 19:25:00,72.7,70.6,29.76,NW,320,0.0,0.0,93,0.00,,,0.30,Wunderground v.1.15,2013-06-27 23:25:00,
2013-06-27 19:30:00,72.4,70.3,29.76,NW,320,0.0,0.0,93,0.00,,,0.30,Wunderground v.1.15,2013-06-27 23:30:00,
2013-06-27 19:40:00,72.6,70.5,29.77,West,265,1.0,1.0,93,0.00,,,0.30,Wunderground v.1.15,2013-06-27 23:40:00,
2013-06-27 19:50:00,72.5,70.4,29.77,West,265,0.0,0.0,93,0.00,,,0.30,Wunderground v.1.15,2013-06-27 23:50:00,
2013-06-27 20:00:00,72.4,70.3,29.77,West,265,0.0,0.0,93,0.00,,,0.30,Wunderground v.1.15,2013-06-28 00:00:00,
2013-06-27 20:05:00,72.2,70.1,29.77,West,265,0.0,0.0,93,0.00,,,0.30,Wunderground v.1.15,2013-06-28 00:05:00,
2013-06-27 20:10:00,72.1,70.0,29.77,West,265,0.0,0.0,93,0.00,,,0.30,Wunderground v.1.15,2013-06-28 00:10:00,
2013-06-27 20:20:00,71.9,69.8,29.77,West,265,0.0,0.0,93,0.00,,,0.30,Wunderground v.1.15,2013-06-28 00:20:00,
2013-06-27 20:25:00,71.8,69.7,29.77,West,265,0.0,0.0,93,0.00,,,0.30,Wunderground v.1.15,2013-06-28 00:25:00,
2013-06-27 20:30:00,71.7,69.9,29.77,West,265,0.0,0.0,94,0.00,,,0.30,Wunderground v.1.15,2013-06-28 00:30:00,
2013-06-27 20:40:00,71.6,69.8,29.78,West,265,0.0,0.0,94,0.00,,,0.30,Wunderground v.1.15,2013-06-28 00:40:00,
2013-06-27 20:50:00,71.3,69.5,29.78,West,265,0.0,0.0,94,0.00,,,0.30,Wunderground v.1.15,2013-06-28 00:50:00,
2013-06-27 20:55:00,71.2,69.4,29.77,West,265,0.0,0.0,94,0.00,,,0.30,Wunderground v.1.15,2013-06-28 00:55:00,
2013-06-27 21:00:00,71.1,69.3,29.78,West,265,0.0,0.0,94,0.00,,,0.30,Wunderground v.1.15,2013-06-28 01:00:00,
2013-06-27 21:15:00,70.8,69.0,29.78,West,265,0.0,0.0,94,0.00,,,0.30,Wunderground v.1.15,2013-06-28 01:15:00,
2013-06-27 21:20:00,70.7,68.9,29.78,West,265,0.0,0.0,94,0.00,,,0.30,Wunderground v.1.15,2013-06-28 01:20:00,
2013-06-27 21:25:00,70.5,68.7,29.79,West,265,0.0,0.0,94,0.00,,,0.30,Wunderground v.1.15,2013-06-28 01:25:00,
2013-06-27 21:30:00,70.4,68.6,29.78,West,265,0.0,0.0,94,0.00,,,0.30,Wunderground v.1.15,2013-06-28 01:30:00,
2013-06-27 21:40:00,70.3,68.5,29.79,West,265,0.0,0.0,94,0.00,,,0.30,Wunderground v.1.15,2013-06-28 01:40:00,
2013-06-27 21:45:00,70.1,68.3,29.79,West,265,0.0,0.0,94,0.00,,,0.30,Wunderground v.1.15,2013-06-28 01:45:00,
2013-06-27 21:55:00,69.9,68.1,29.80,West,265,0.0,0.0,94,0.00,,,0.30,Wunderground v.1.15,2013-06-28 01:55:00,
2013-06-27 22:00:00,69.8,68.0,29.79,West,265,0.0,0.0,94,0.00,,,0.30,Wunderground v.1.15,2013-06-28 02:00:00,
2013-06-27 22:05:00,69.8,68.0,29.80,West,265,0.0,0.0,94,0.00,,,0.30,Wunderground v.1.15,2013-06-28 02:05:00,
2013-06-27 22:10:00,69.7,67.9,29.80,West,265,0.0,0.0,94,0.00,,,0.30,Wunderground v.1.15,2013-06-28 02:10:00,
2013-06-27 22:15:00,69.6,67.8,29.80,West,265,0.0,0.0,94,0.00,,,0.30,Wunderground v.1.15,2013-06-28 02:15:00,
2013-06-27 22:25:00,69.6,67.8,29.80,West,265,0.0,0.0,94,0.00,,,0.30,Wunderground v.1.15,2013-06-28 02:25:00,
2013-06-27 22:30:00,69.4,67.6,29.81,West,265,0.0,0.0,94,0.00,,,0.30,Wunderground v.1.15,2013-06-28 02:30:00,
2013-06-27 22:40:00,69.4,67.6,29.81,West,265,0.0,0.0,94,0.00,,,0.30,Wunderground v.1.15,2013-06-28 02:40:00,
2013-06-27 22:45:00,69.4,67.6,29.81,West,265,0.0,0.0,94,0.00,,,0.30,Wunderground v.1.15,2013-06-28 02:45:00,
2013-06-27 22:55:00,69.3,67.5,29.81,West,265,0.0,0.0,94,0.00,,,0.30,Wunderground v.1.15,2013-06-28 02:55:00,
2013-06-27 23:00:00,69.2,67.4,29.81,West,265,0.0,0.0,94,0.00,,,0.30,Wunderground v.1.15,2013-06-28 03:00:00,
2013-06-27 23:15:00,69.0,67.5,29.80,West,265,0.0,0.0,95,0.00,,,0.31,Wunderground v.1.15,2013-06-28 03:15:00,
2013-06-27 23:25:00,68.9,67.4,29.80,West,265,0.0,0.0,95,0.00,,,0.31,Wunderground v.1.15,2013-06-28 03:25:00,
2013-06-27 23:30:00,68.9,67.4,29.80,West,265,0.0,0.0,95,0.00,,,0.31,Wunderground v.1.15,2013-06-28 03:30:00,
2013-06-27 23:40:00,68.6,67.1,29.80,West,265,0.0,0.0,95,0.00,,,0.31,Wunderground v.1.15,2013-06-28 03:40:00,
2013-06-27 23:45:00,68.5,67.0,29.80,West,265,0.0,0.0,95,0.00,,,0.31,Wunderground v.1.15,2013-06-28 03:45:00,
2013-06-27 23:55:00,68.7,67.2,29.80,West,265,0.0,0.0,95,0.00,,,0.31,Wunderground v.1.15,2013-06-28 03:55:00,